Time;durP1;ratioP1;P1;durP2;ratioP2;P2;SDS_P1;SDS_P2;PMS_P1;PMS_P2;Temp;Humidity;BMP_temperature;BMP_pressure;BME280_temperature;BME280_humidity;BME280_pressure;Samples;Min_cycle;Max_cycle;Signal;HPM_P1;HPM_P2
2022/08/18 00:02:22;;;;;;;11.90;9.50;;;;;;;21.25;85.08;99973.16;1516240;84;22475;-81
2022/08/18 00:04:48;;;;;;;16.02;10.35;;;;;;;21.24;84.67;99968.84;1497266;86;21395;-80
2022/08/18 00:07:19;;;;;;;15.58;11.80;;;;;;;21.22;84.58;99973.62;1499354;86;21469;-80
2022/08/18 00:09:50;;;;;;;12.88;10.53;;;;;;;21.19;84.85;99978.93;1500142;86;21331;-81
2022/08/18 00:12:25;;;;;;;14.13;10.48;;;;;;;21.12;85.45;99981.72;1490418;86;21345;-81
2022/08/18 00:14:53;;;;;;;11.08;9.33;;;;;;;21.04;86.75;99977.18;1496006;86;22437;-80
2022/08/18 00:17:20;;;;;;;14.40;8.85;;;;;;;21.01;86.46;99977.11;1563482;83;21358;-80
2022/08/18 00:19:46;;;;;;;10.70;9.60;;;;;;;20.99;86.41;99984.58;1540683;83;21425;-81
2022/08/18 00:22:17;;;;;;;17.12;9.53;;;;;;;20.94;86.73;99977.20;1523357;85;22305;-82
2022/08/18 00:24:48;;;;;;;11.10;9.83;;;;;;;20.92;86.97;99976.60;1549936;83;21292;-81
2022/08/18 00:27:20;;;;;;;12.25;9.95;;;;;;;20.88;87.75;99981.30;1554514;83;22406;-81
2022/08/18 00:29:45;;;;;;;16.52;11.20;;;;;;;20.84;87.88;99984.16;1521432;84;22333;-80
2022/08/18 00:32:23;;;;;;;13.40;11.25;;;;;;;20.78;87.67;99987.75;1545738;83;21447;-80
2022/08/18 00:34:50;;;;;;;15.48;11.33;;;;;;;20.70;88.15;99986.17;1537790;84;21573;-80
2022/08/18 00:37:16;;;;;;;21.10;10.32;;;;;;;20.66;88.15;99987.16;1542616;83;21343;-79
2022/08/18 00:39:42;;;;;;;11.78;10.08;;;;;;;20.61;89.03;99988.34;1554036;83;21373;-79
2022/08/18 00:42:26;;;;;;;19.82;10.95;;;;;;;20.58;89.30;99999.55;1514466;85;21506;-79
2022/08/18 00:44:53;;;;;;;14.73;10.43;;;;;;;20.53;89.93;99987.29;1517228;85;21507;-80
2022/08/18 00:47:19;;;;;;;10.35;9.35;;;;;;;20.52;89.02;99989.66;1507776;85;21389;-80
2022/08/18 00:49:50;;;;;;;13.00;9.83;;;;;;;20.50;89.43;99997.12;1504641;85;21344;-80
2022/08/18 00:52:18;;;;;;;13.98;10.68;;;;;;;20.47;89.65;99988.16;1517966;85;22437;-80
2022/08/18 00:54:46;;;;;;;12.23;9.08;;;;;;;20.44;89.04;99995.33;1522778;85;22195;-80
2022/08/18 00:57:15;;;;;;;10.93;9.73;;;;;;;20.37;88.65;99992.72;1499258;86;21989;-80
2022/08/18 00:59:55;;;;;;;10.95;9.85;;;;;;;20.34;87.97;100000.37;1494088;86;21265;-80
2022/08/18 01:02:27;;;;;;;15.43;9.35;;;;;;;20.29;88.56;100007.25;1488794;86;21447;-80
2022/08/18 01:05:04;;;;;;;11.22;10.13;;;;;;;20.22;88.46;100014.53;1535625;83;21270;-80
2022/08/18 01:07:42;;;;;;;10.55;9.48;;;;;;;20.15;88.40;100016.47;1543679;83;21350;-81
2022/08/18 01:10:07;;;;;;;13.83;9.13;;;;;;;20.08;89.88;100003.60;1533479;84;21439;-80
2022/08/18 01:12:33;;;;;;;10.80;9.18;;;;;;;20.05;90.85;100006.23;1540420;84;21320;-80
2022/08/18 01:15:00;;;;;;;14.03;9.98;;;;;;;20.04;91.20;100007.78;1534151;84;21351;-81
2022/08/18 01:23:06;;;;;;;12.50;9.47;;;;;;;19.98;90.53;100008.67;1541403;84;21431;-80
2022/08/18 01:28:20;;;;;;;14.38;10.08;;;;;;;19.92;89.90;100007.68;1551150;83;21447;-81
2022/08/18 01:30:49;;;;;;;12.35;9.98;;;;;;;19.97;89.47;100011.88;1535623;83;21350;-80
2022/08/18 01:33:17;;;;;;;14.75;10.98;;;;;;;19.99;89.92;100015.14;1514513;85;21359;-80
2022/08/18 01:35:48;;;;;;;14.45;11.57;;;;;;;19.99;89.52;100006.27;1506346;86;21492;-80
2022/08/18 01:38:17;;;;;;;12.07;10.58;;;;;;;19.99;89.44;100000.37;1540149;86;21492;-80
2022/08/18 01:40:45;;;;;;;14.33;10.47;;;;;;;19.97;89.88;99995.77;1500991;86;21332;-80
2022/08/18 01:43:13;;;;;;;11.68;10.48;;;;;;;19.98;89.91;99993.89;1503730;86;21794;-81
2022/08/18 01:45:43;;;;;;;11.68;10.00;;;;;;;19.95;91.78;99992.99;1541728;84;21432;-81
2022/08/18 01:48:09;;;;;;;11.30;10.20;;;;;;;19.91;92.06;99981.03;1535020;84;21529;-82
2022/08/18 01:50:38;;;;;;;12.23;9.40;;;;;;;19.90;91.30;99979.39;1544891;83;21359;-82
2022/08/18 01:53:06;;;;;;;13.40;9.83;;;;;;;19.90;91.02;99974.02;1541554;83;22261;-81
2022/08/18 01:55:35;;;;;;;13.35;10.35;;;;;;;19.90;90.64;99971.34;1551224;83;21440;-80
2022/08/18 01:58:04;;;;;;;13.50;12.13;;;;;;;19.87;91.34;99968.57;1509177;85;21418;-80
2022/08/18 02:00:31;;;;;;;15.40;11.43;;;;;;;19.80;91.26;99959.23;1494778;86;21450;-81
2022/08/18 02:02:59;;;;;;;12.78;11.20;;;;;;;19.70;90.42;99959.42;1494964;86;22534;-82
2022/08/18 02:05:37;;;;;;;12.25;10.98;;;;;;;19.58;89.96;99956.59;1504994;86;21475;-81
2022/08/18 02:08:05;;;;;;;15.93;10.63;;;;;;;19.48;91.18;99960.27;1498924;86;21366;-81
2022/08/18 02:10:31;;;;;;;12.33;10.15;;;;;;;19.44;92.65;99955.86;1551369;84;22444;-81
2022/08/18 02:12:58;;;;;;;15.45;10.30;;;;;;;19.43;94.21;99954.75;1526133;83;21558;-80
2022/08/18 02:15:24;;;;;;;11.70;10.58;;;;;;;19.44;93.72;99955.86;1543100;83;21532;-81
2022/08/18 02:17:50;;;;;;;11.90;9.30;;;;;;;19.46;93.31;99947.60;1533289;84;22453;-81
2022/08/18 02:20:18;;;;;;;20.00;10.67;;;;;;;19.47;93.97;99947.37;1544320;83;22020;-80
2022/08/18 02:22:46;;;;;;;11.00;9.78;;;;;;;19.46;93.64;99950.28;1535355;83;21344;-81
2022/08/18 02:25:14;;;;;;;12.07;10.00;;;;;;;19.44;93.82;99948.33;1545900;83;21351;-82
2022/08/18 02:27:40;;;;;;;14.45;10.80;;;;;;;19.43;94.21;99946.70;1542452;83;21424;-81
2022/08/18 02:30:11;;;;;;;13.75;11.35;;;;;;;19.44;93.90;99944.30;1530884;84;22341;-80
2022/08/18 02:32:38;;;;;;;16.83;12.17;;;;;;;19.48;93.88;99947.69;1526627;84;22248;-81
2022/08/18 02:35:07;;;;;;;11.63;10.43;;;;;;;19.53;92.99;99948.36;1547365;84;21381;-82
2022/08/18 02:37:33;;;;;;;15.70;12.17;;;;;;;19.59;92.79;99948.83;1541041;83;21463;-81
2022/08/18 02:39:59;;;;;;;16.93;13.53;;;;;;;19.60;92.99;99950.49;1538709;84;21494;-81
2022/08/18 02:42:27;;;;;;;19.77;14.30;;;;;;;19.59;92.92;99951.52;1541088;84;21506;-82
2022/08/18 02:44:53;;;;;;;13.80;11.12;;;;;;;19.56;93.11;99949.27;1535513;83;21499;-82
2022/08/18 02:47:21;;;;;;;17.80;12.82;;;;;;;19.52;93.79;99946.73;1539516;83;22569;-82
2022/08/18 02:49:48;;;;;;;15.53;11.43;;;;;;;19.52;93.79;99944.05;1540763;83;21452;-82
2022/08/18 02:52:15;;;;;;;12.50;11.12;;;;;;;19.52;93.87;99954.78;1529919;84;22224;-81
2022/08/18 02:54:42;;;;;;;10.78;9.58;;;;;;;19.52;93.23;99957.46;1539170;84;21378;-80
2022/08/18 02:57:11;;;;;;;12.05;10.85;;;;;;;19.57;92.55;99960.32;1541277;84;21410;-80
2022/08/18 02:59:39;;;;;;;12.35;10.90;;;;;;;19.60;92.13;99963.91;1538418;83;21350;-81
2022/08/18 03:02:07;;;;;;;14.50;11.27;;;;;;;19.58;92.56;99953.91;1547371;83;21350;-80
2022/08/18 03:04:34;;;;;;;13.72;11.33;;;;;;;19.54;92.46;99962.10;1505790;85;21323;-80
2022/08/18 03:07:04;;;;;;;12.50;11.03;;;;;;;19.47;93.30;99959.97;1515295;86;21367;-79
2022/08/18 03:09:33;;;;;;;11.43;9.85;;;;;;;19.45;93.57;99962.04;1503606;85;21293;-79
2022/08/18 03:12:00;;;;;;;13.03;11.08;;;;;;;19.46;92.50;99957.00;1500678;86;21263;-80
2022/08/18 03:14:27;;;;;;;14.10;11.55;;;;;;;19.45;91.77;99960.70;1498171;85;22312;-80
2022/08/18 03:16:53;;;;;;;14.87;12.05;;;;;;;19.40;91.61;99957.34;1502821;85;22217;-80
2022/08/18 03:19:19;;;;;;;12.25;11.00;;;;;;;19.33;92.17;99961.42;1512271;85;21381;-80
2022/08/18 03:21:47;;;;;;;12.30;11.07;;;;;;;19.29;92.12;99970.10;1505358;85;21352;-83
2022/08/18 03:29:24;;;;;;;13.47;12.07;;;;;;;19.09;93.46;99976.91;1478782;84;21701;-80
2022/08/18 03:31:55;;;;;;;15.47;12.80;;;;;;;19.10;93.96;99975.87;1510179;85;22308;-81
2022/08/18 03:34:22;;;;;;;12.93;11.40;;;;;;;19.11;94.35;99980.22;1516048;85;21405;-81
2022/08/18 03:36:50;;;;;;;18.05;13.60;;;;;;;19.13;93.49;99974.09;1495604;85;22306;-82
2022/08/18 03:39:18;;;;;;;20.10;13.65;;;;;;;19.15;93.65;99979.55;1519902;85;22028;-82
2022/08/18 03:41:46;;;;;;;17.47;13.70;;;;;;;19.13;94.70;99984.83;1508835;85;21340;-80
2022/08/18 03:44:14;;;;;;;19.83;13.83;;;;;;;19.14;94.08;99985.97;1503247;87;21324;-81
2022/08/18 03:46:43;;;;;;;15.78;13.25;;;;;;;19.19;94.11;99982.66;1496580;87;21435;-80
2022/08/18 03:49:11;;;;;;;16.52;14.05;;;;;;;19.23;94.03;99993.77;1495554;85;21434;-81
2022/08/18 03:51:39;;;;;;;23.23;13.90;;;;;;;19.26;93.83;100001.39;1515465;85;21421;-81
2022/08/18 03:54:05;;;;;;;19.92;14.43;;;;;;;19.30;94.15;100007.43;1515475;85;21516;-81
2022/08/18 03:56:37;;;;;;;29.33;13.77;;;;;;;19.33;94.34;100011.55;1518988;85;21302;-82
2022/08/18 03:59:11;;;;;;;20.77;14.95;;;;;;;19.30;93.73;100016.00;1514860;85;21435;-80
2022/08/18 04:01:40;;;;;;;15.32;13.83;;;;;;;19.28;93.09;100009.53;1526460;85;21420;-81
2022/08/18 04:04:11;;;;;;;19.07;12.97;;;;;;;19.27;93.19;100002.50;1508324;85;21310;-81
2022/08/18 04:06:58;;;;;;;11.17;9.93;;;;;;;19.28;93.49;100006.84;1509096;85;21493;-81
2022/08/18 04:09:29;;;;;;;12.53;11.25;;;;;;;19.28;93.50;100002.82;1520416;84;21330;-82
2022/08/18 04:11:57;;;;;;;11.38;10.20;;;;;;;19.28;93.20;100013.55;1516664;85;21377;-82
2022/08/18 04:14:30;;;;;;;11.88;10.78;;;;;;;19.30;92.87;100017.34;1525339;85;21353;-82
2022/08/18 04:16:58;;;;;;;14.90;12.47;;;;;;;19.30;93.14;100019.50;1518400;85;21494;-82
2022/08/18 04:19:24;;;;;;;29.87;13.30;;;;;;;19.30;93.17;100024.05;1525008;85;21513;-82
2022/08/18 04:21:52;;;;;;;15.98;14.15;;;;;;;19.29;92.98;100023.23;1516987;85;22408;-82
2022/08/18 04:24:19;;;;;;;17.77;13.55;;;;;;;19.29;92.92;100021.08;1501245;86;21543;-82
2022/08/18 04:26:47;;;;;;;15.20;13.48;;;;;;;19.28;92.88;100023.47;1524866;85;22293;-82
2022/08/18 04:29:17;;;;;;;14.10;12.28;;;;;;;19.30;93.55;100023.53;1508341;85;21533;-82
2022/08/18 04:31:44;;;;;;;20.17;15.98;;;;;;;19.35;95.08;100019.69;1520803;84;21484;-82
2022/08/18 04:34:11;;;;;;;23.35;16.60;;;;;;;19.38;95.39;100029.17;1513060;85;22010;-82
2022/08/18 04:36:38;;;;;;;23.87;16.55;;;;;;;19.42;95.75;100030.91;1521180;85;21330;-81
2022/08/18 04:39:08;;;;;;;21.62;17.12;;;;;;;19.49;95.21;100031.70;1527517;85;21496;-83
2022/08/18 04:41:34;;;;;;;;;;;;;;;19.58;95.08;100031.74;1520667;85;21304;-82
2022/08/18 04:44:04;;;;;;;20.57;16.73;;;;;;;19.67;95.19;100022.94;1508402;85;20356;-82
2022/08/18 04:46:38;;;;;;;18.30;16.37;;;;;;;19.78;94.49;100021.72;1522454;85;21323;-81
2022/08/18 04:49:05;;;;;;;26.25;18.92;;;;;;;19.87;94.54;100026.83;1531278;85;21361;-82
2022/08/18 04:51:31;;;;;;;23.60;18.95;;;;;;;19.96;93.99;100037.59;1501576;85;21319;-83
2022/08/18 04:53:59;;;;;;;32.90;18.85;;;;;;;20.06;93.91;100041.98;1514987;85;21442;-82
2022/08/18 04:56:33;;;;;;;27.90;18.30;;;;;;;20.14;93.42;100040.36;1505249;85;22181;-83
2022/08/18 04:59:07;;;;;;;17.12;15.28;;;;;;;20.23;93.15;100053.81;1532369;85;21226;-82
2022/08/18 05:01:38;;;;;;;21.45;16.32;;;;;;;20.27;93.35;100059.04;1511914;85;22427;-82
2022/08/18 05:04:05;;;;;;;25.43;18.05;;;;;;;20.32;92.48;100048.17;1524007;85;21389;-82
2022/08/18 05:06:32;;;;;;;17.52;15.48;;;;;;;20.28;92.30;100051.30;1526018;85;21528;-82
2022/08/18 05:09:03;;;;;;;21.55;16.50;;;;;;;20.36;92.00;100040.77;1516468;85;21557;-82
2022/08/18 05:11:34;;;;;;;24.23;16.45;;;;;;;20.41;91.68;100044.97;1520763;84;21299;-81
2022/08/18 05:14:04;;;;;;;22.80;20.10;;;;;;;20.37;93.05;100044.27;1533831;84;21270;-84
2022/08/18 05:16:35;;;;;;;27.50;19.45;;;;;;;20.39;92.60;100048.39;1511119;84;21366;-84
2022/08/18 05:19:07;;;;;;;18.45;16.40;;;;;;;20.44;92.55;100043.70;1490729;86;21304;-81
2022/08/18 05:21:35;;;;;;;23.25;17.15;;;;;;;20.48;93.05;100055.15;1518478;85;21419;-82
2022/08/18 05:24:03;;;;;;;19.75;16.93;;;;;;;20.53;93.37;100061.22;1515650;84;21421;-89
2022/08/18 05:26:30;;;;;;;22.52;18.42;;;;;;;20.61;93.33;100060.94;1529296;85;22318;-88
2022/08/18 05:28:58;;;;;;;25.20;16.25;;;;;;;20.73;92.69;100061.02;1509722;85;22342;-88
2022/08/18 05:31:27;;;;;;;19.98;16.30;;;;;;;20.90;92.60;100058.56;1509120;84;21309;-89
2022/08/18 05:33:56;;;;;;;19.92;14.73;;;;;;;21.04;92.45;100057.36;1501980;86;21326;-89
2022/08/18 05:36:50;;;;;;;22.77;16.87;;;;;;;21.15;92.26;100066.02;1523134;85;21329;-87
2022/08/18 05:39:25;;;;;;;18.40;15.13;;;;;;;21.27;91.22;100070.13;1512857;85;22161;-88
2022/08/18 05:42:17;;;;;;;22.00;16.12;;;;;;;21.42;90.75;100064.36;1529301;84;21384;-86
2022/08/18 05:44:48;;;;;;;22.58;15.30;;;;;;;21.56;90.12;100052.36;1523034;84;21337;-90
2022/08/18 05:47:28;;;;;;;19.10;14.35;;;;;;;21.73;89.96;100057.11;1515436;85;22219;-91
2022/08/18 05:49:58;;;;;;;15.20;13.58;;;;;;;21.84;89.13;100057.67;1524687;85;21323;-94
2022/08/18 05:52:38;;;;;;;17.15;12.45;;;;;;;21.99;88.91;100060.73;1526389;85;21373;-93
2022/08/18 05:58:33;;;;;;;16.35;11.90;;;;;;;22.27;86.89;100078.16;1533964;85;21319;-94
2022/08/18 06:01:05;;;;;;;16.67;13.22;;;;;;;22.52;85.35;100084.66;1519731;84;21349;-86
2022/08/18 06:03:49;;;;;;;18.37;11.05;;;;;;;22.52;85.35;100084.66;1534574;84;21336;-91
2022/08/18 06:06:23;;;;;;;12.65;11.28;;;;;;;22.60;84.50;100081.61;1489938;85;22273;-91
2022/08/18 06:08:58;;;;;;;13.38;10.70;;;;;;;22.71;84.23;100077.28;1507682;85;21467;-93
2022/08/18 06:11:24;;;;;;;13.58;11.48;;;;;;;22.80;83.62;100077.73;1529406;85;21333;-94
2022/08/18 06:13:50;;;;;;;17.35;12.13;;;;;;;22.86;82.85;100074.91;1528172;85;21355;-91
2022/08/18 06:16:55;;;;;;;13.08;10.53;;;;;;;22.95;82.50;100073.51;1519242;85;21278;-93
2022/08/18 06:19:57;;;;;;;20.80;11.33;;;;;;;23.07;82.05;100070.78;1460122;86;21523;-91
2022/08/18 06:22:50;;;;;;;15.55;11.12;;;;;;;23.15;81.27;100073.64;1526771;84;21345;-90
2022/08/18 06:25:36;;;;;;;15.25;10.15;;;;;;;23.23;80.98;100074.63;1512299;84;22238;-93
2022/08/18 06:28:12;;;;;;;28.80;12.20;;;;;;;23.40;80.53;100072.80;1513640;84;21410;-92
2022/08/18 06:31:11;;;;;;;23.18;12.40;;;;;;;23.61;80.49;100073.19;1500613;85;22063;-92
2022/08/18 06:34:09;;;;;;;19.10;11.60;;;;;;;23.72;78.78;100072.34;1508397;84;21449;-91
2022/08/18 06:37:01;;;;;;;15.03;10.72;;;;;;;23.87;78.25;100071.78;1495604;86;21469;-93
2022/08/18 06:39:41;;;;;;;19.48;10.75;;;;;;;24.03;77.48;100076.94;1505834;85;21566;-88
2022/08/18 06:42:07;;;;;;;12.30;10.98;;;;;;;24.19;76.77;100077.98;1523939;85;21316;-92
2022/08/18 06:44:47;;;;;;;15.00;9.60;;;;;;;24.25;75.70;100067.00;1510984;85;22735;-91
2022/08/18 06:47:53;;;;;;;13.18;9.18;;;;;;;24.35;74.23;100065.55;1515068;85;21500;-90
2022/08/18 06:50:28;;;;;;;15.60;8.40;;;;;;;24.52;75.64;100073.14;1520246;84;21463;-92
2022/08/18 06:53:02;;;;;;;12.55;9.05;;;;;;;24.64;73.88;100064.37;1516480;84;22701;-92
2022/08/18 06:55:40;;;;;;;11.03;8.88;;;;;;;24.76;73.11;100073.20;1493715;86;22235;-91
2022/08/18 06:58:28;;;;;;;8.95;8.00;;;;;;;24.85;72.40;100061.41;1496594;85;21437;-91
2022/08/18 07:01:02;;;;;;;11.05;8.65;;;;;;;24.90;71.24;100057.95;1495620;86;21440;-93
2022/08/18 07:03:39;;;;;;;13.35;9.25;;;;;;;25.01;70.78;100054.31;1517202;86;22430;-93
2022/08/18 07:06:23;;;;;;;8.58;7.62;;;;;;;25.11;70.54;100056.31;1508253;85;22355;-93
2022/08/18 07:08:56;;;;;;;18.10;8.88;;;;;;;25.26;70.11;100050.28;1501030;85;21564;-95
2022/08/18 07:11:31;;;;;;;13.25;8.38;;;;;;;25.40;70.08;100047.46;1520463;85;21440;-94
2022/08/18 07:14:21;;;;;;;13.43;9.08;;;;;;;25.59;70.06;100059.59;1513026;85;21351;-91
2022/08/18 07:16:48;;;;;;;13.55;9.00;;;;;;;25.61;67.41;100066.94;1461092;89;21413;-91
2022/08/18 07:19:19;;;;;;;12.53;8.63;;;;;;;25.74;66.93;100071.11;1478295;86;22038;-87
2022/08/18 07:22:05;;;;;;;10.13;7.92;;;;;;;25.84;67.28;100069.08;1480633;85;22579;-89
2022/08/18 07:24:41;;;;;;;13.20;7.78;;;;;;;25.93;66.59;100078.92;1444741;87;21604;-88
2022/08/18 07:27:14;;;;;;;11.08;7.35;;;;;;;26.07;66.08;100075.52;1501736;85;22400;-88
2022/08/18 07:30:04;;;;;;;8.15;7.35;;;;;;;26.04;63.24;100081.46;1453452;89;22254;-89
2022/08/18 07:32:51;;;;;;;11.20;7.05;;;;;;;26.10;64.89;100085.84;1508280;86;21441;-87
2022/08/18 07:35:25;;;;;;;10.20;8.70;;;;;;;26.15;64.86;100080.98;1487252;87;22491;-89
2022/08/18 07:38:06;;;;;;;8.20;7.40;;;;;;;26.28;64.44;100074.31;1486558;87;21500;-88
2022/08/18 07:40:44;;;;;;;12.35;8.05;;;;;;;26.38;63.62;100069.50;1482751;87;22240;-86
2022/08/18 07:43:27;;;;;;;12.23;8.65;;;;;;;26.44;63.02;100069.29;1514867;85;21359;-88
2022/08/18 07:45:58;;;;;;;10.63;7.55;;;;;;;26.62;63.10;100067.26;1490048;86;22320;-87
2022/08/18 07:48:33;;;;;;;9.68;8.43;;;;;;;26.78;62.89;100063.52;1482827;86;21567;-87
2022/08/18 07:51:28;;;;;;;12.07;8.20;;;;;;;26.90;62.32;100061.44;1460566;87;22321;-87
2022/08/18 07:54:03;;;;;;;8.58;7.65;;;;;;;26.94;59.79;100057.09;1467941;87;22623;-81
2022/08/18 07:56:42;;;;;;;11.68;9.15;;;;;;;27.08;61.22;100056.62;1464046;87;21354;-80
2022/08/18 07:59:32;;;;;;;15.58;8.15;;;;;;;27.19;61.28;100055.61;1485047;86;21415;-81
2022/08/18 08:02:33;;;;;;;;;;;;;;;27.29;59.99;100062.41;1474526;89;21581;-81
2022/08/18 08:05:38;;;;;;;11.48;7.92;;;;;;;27.32;57.32;100058.34;1484288;86;20302;-80
2022/08/18 08:08:31;;;;;;;11.00;7.37;;;;;;;27.45;59.47;100055.95;1488913;86;21581;-80
2022/08/18 08:11:15;;;;;;;17.87;7.78;;;;;;;27.56;57.79;100052.68;1482843;87;21403;-79
2022/08/18 08:14:02;;;;;;;19.60;8.60;;;;;;;27.48;57.69;100049.16;1489153;86;21432;-82
2022/08/18 08:16:40;;;;;;;10.68;7.53;;;;;;;27.54;57.56;100055.42;1480568;87;21597;-82
2022/08/18 08:19:26;;;;;;;12.28;7.92;;;;;;;27.74;58.17;100062.25;1492165;87;21626;-82
2022/08/18 08:22:07;;;;;;;12.55;7.00;;;;;;;27.88;57.10;100060.66;1464847;87;21405;-81
2022/08/18 08:24:54;;;;;;;18.35;6.53;;;;;;;28.10;56.86;100062.27;1460222;87;21612;-82
2022/08/18 08:27:47;;;;;;;11.15;7.45;;;;;;;28.15;55.45;100060.11;1495139;85;21360;-82
2022/08/18 08:30:22;;;;;;;14.20;6.87;;;;;;;28.20;55.47;100046.52;1479798;86;21389;-82
2022/08/18 08:33:28;;;;;;;8.88;6.72;;;;;;;28.20;53.36;100052.77;1488027;87;21418;-82
2022/08/18 08:36:09;;;;;;;13.45;7.20;;;;;;;28.35;53.92;100056.81;1442758;89;21455;-82
2022/08/18 08:38:53;;;;;;;9.00;6.53;;;;;;;28.45;51.32;100053.83;1508025;86;21626;-82
2022/08/18 08:41:38;;;;;;;10.82;7.30;;;;;;;28.50;52.88;100054.63;1489369;87;22469;-81
2022/08/18 08:44:13;;;;;;;10.53;7.45;;;;;;;28.70;53.20;100055.13;1502944;86;21487;-83
2022/08/18 08:46:47;;;;;;;11.53;6.33;;;;;;;28.68;52.51;100047.78;1523140;85;21387;-81
2022/08/18 08:49:34;;;;;;;12.58;6.70;;;;;;;28.84;51.99;100051.83;1508226;85;21540;-81
2022/08/18 08:52:23;;;;;;;12.47;6.80;;;;;;;28.93;51.61;100055.60;1490458;86;21351;-83
2022/08/18 08:55:20;;;;;;;9.63;5.92;;;;;;;29.12;51.16;100053.92;1496079;86;21323;-82
2022/08/18 08:57:58;;;;;;;13.15;7.10;;;;;;;29.26;51.02;100053.30;1503814;86;21367;-81
2022/08/18 09:00:25;;;;;;;11.70;6.72;;;;;;;29.40;50.64;100053.75;1489127;87;22450;-82
2022/08/18 09:03:23;;;;;;;9.20;6.35;;;;;;;29.42;49.69;100054.30;1496085;86;21323;-82
2022/08/18 09:06:09;;;;;;;7.92;6.50;;;;;;;29.57;50.04;100059.38;1488035;85;21388;-82
2022/08/18 09:08:54;;;;;;;12.68;6.97;;;;;;;29.51;47.07;100054.51;1519181;85;21543;-83
2022/08/18 09:11:38;;;;;;;11.48;6.78;;;;;;;29.58;47.80;100058.30;1499816;85;22250;-83
2022/08/18 09:14:36;;;;;;;16.90;6.42;;;;;;;29.74;49.39;100056.30;1503146;85;21395;-84
2022/08/18 09:17:49;;;;;;;11.90;6.15;;;;;;;29.87;48.60;100053.75;1510890;85;21521;-82
2022/08/18 09:20:40;;;;;;;7.85;6.42;;;;;;;29.97;47.62;100051.47;1497477;86;21484;-81
2022/08/18 09:23:12;;;;;;;13.08;6.62;;;;;;;30.00;46.13;100057.72;1508255;86;21351;-83
2022/08/18 09:25:43;;;;;;;11.10;5.78;;;;;;;30.03;47.24;100050.33;1490482;86;21426;-82
2022/08/18 09:28:23;;;;;;;12.23;6.35;;;;;;;30.17;47.28;100042.85;1496630;86;21426;-82
2022/08/18 09:31:07;;;;;;;11.55;5.65;;;;;;;30.25;45.00;100039.53;1502364;85;21504;-82
2022/08/18 09:33:55;;;;;;;9.10;6.28;;;;;;;30.36;45.86;100038.34;1502758;86;21581;-84
2022/08/18 09:36:48;;;;;;;15.70;6.25;;;;;;;30.52;45.83;100030.22;1483819;87;22651;-83
2022/08/18 09:42:19;;;;;;;16.55;7.03;;;;;;;30.81;45.36;100023.91;1500852;86;21344;-81
2022/08/18 09:44:54;;;;;;;13.43;6.80;;;;;;;31.00;45.20;100030.80;1504526;85;21492;-80
2022/08/18 09:47:29;;;;;;;10.88;6.58;;;;;;;31.08;45.20;100036.17;1495750;87;21905;-82
2022/08/18 09:50:04;;;;;;;13.25;6.08;;;;;;;31.03;43.25;100028.84;1505375;84;22195;-82
2022/08/18 09:52:39;;;;;;;9.58;6.40;;;;;;;31.19;43.81;100039.02;1517078;86;21507;-82
2022/08/18 09:55:16;;;;;;;12.05;6.58;;;;;;;31.19;42.53;100033.56;1505250;86;21476;-82
2022/08/18 09:57:45;;;;;;;10.55;5.95;;;;;;;31.29;43.19;100037.50;1507783;85;22600;-81
2022/08/18 10:00:20;;;;;;;12.33;6.05;;;;;;;31.32;42.80;100036.91;1488844;85;22263;-82
2022/08/18 10:02:51;;;;;;;10.60;6.45;;;;;;;31.50;43.81;100033.94;1496514;85;21447;-83
2022/08/18 10:05:23;;;;;;;8.65;6.60;;;;;;;31.63;43.18;100032.39;1490914;86;21647;-82
2022/08/18 10:08:04;;;;;;;15.72;6.12;;;;;;;31.80;43.25;100030.48;1511296;86;23274;-82
2022/08/18 10:10:43;;;;;;;8.35;6.83;;;;;;;31.82;41.59;100031.81;1497459;85;21395;-82
2022/08/18 10:13:41;;;;;;;10.65;6.60;;;;;;;31.79;41.85;100025.54;1497761;86;21573;-81
2022/08/18 10:16:30;;;;;;;14.10;6.15;;;;;;;31.61;41.28;100021.73;1512008;85;21592;-82
2022/08/18 10:19:07;;;;;;;9.53;6.33;;;;;;;31.38;39.94;100025.38;1507171;85;21558;-81
2022/08/18 10:22:00;;;;;;;9.08;5.65;;;;;;;31.40;39.70;100019.87;1479604;86;21351;-81
2022/08/18 10:24:55;;;;;;;8.05;5.55;;;;;;;31.55;41.62;100022.12;1509755;85;21486;-82
2022/08/18 10:27:45;;;;;;;7.97;6.15;;;;;;;31.59;40.53;100019.03;1502543;84;21323;-81
2022/08/18 10:30:36;;;;;;;10.82;6.28;;;;;;;31.53;40.47;100024.33;1515981;84;21341;-81
2022/08/18 10:33:10;;;;;;;9.13;5.53;;;;;;;31.54;40.52;100025.41;1509401;86;21552;-82
2022/08/18 10:35:42;;;;;;;9.00;6.25;;;;;;;31.79;40.48;100035.11;1493267;86;22260;-81
2022/08/18 10:38:16;;;;;;;7.65;5.83;;;;;;;31.94;39.77;100037.37;1506497;86;22409;-81
2022/08/18 10:40:44;;;;;;;8.28;5.42;;;;;;;31.96;37.67;100035.16;1508545;85;21366;-83
2022/08/18 10:43:18;;;;;;;19.20;6.70;;;;;;;31.87;38.09;100035.81;1492804;86;21359;-82
2022/08/18 10:45:48;;;;;;;10.08;5.60;;;;;;;31.62;38.35;100035.69;1510955;85;21469;-81
2022/08/18 10:48:29;;;;;;;13.18;6.12;;;;;;;31.73;39.09;100028.67;1474739;86;21556;-82
2022/08/18 10:51:21;;;;;;;18.67;5.92;;;;;;;31.96;39.47;100028.31;1465615;87;22410;-82
2022/08/18 10:53:59;;;;;;;;;;;;;;;32.05;39.35;100028.72;1465244;89;21331;-81
2022/08/18 10:56:54;;;;;;;9.25;5.00;;;;;;;32.26;39.66;100023.67;1460953;89;20241;-81
2022/08/18 10:59:40;;;;;;;13.75;5.85;;;;;;;32.48;39.55;100026.30;1487597;87;22246;-81
2022/08/18 11:02:30;;;;;;;11.97;5.55;;;;;;;32.81;39.94;100025.09;1471903;87;21556;-81
2022/08/18 11:04:57;;;;;;;6.90;4.97;;;;;;;32.70;36.82;100025.05;1501667;85;21330;-82
2022/08/18 11:07:30;;;;;;;7.20;4.42;;;;;;;32.72;37.77;100026.92;1498967;86;21285;-81
2022/08/18 11:09:58;;;;;;;7.22;5.00;;;;;;;32.61;37.20;100024.14;1499668;86;22541;-82
2022/08/18 11:12:59;;;;;;;23.70;7.22;;;;;;;32.38;37.45;100017.70;1447492;86;22261;-81
2022/08/18 11:15:49;;;;;;;10.60;5.47;;;;;;;32.43;38.21;100023.66;1499258;86;21418;-82
2022/08/18 11:18:27;;;;;;;14.83;5.65;;;;;;;32.59;37.94;100024.42;1498974;86;22223;-82
2022/08/18 11:20:52;;;;;;;8.88;5.17;;;;;;;32.81;38.79;100017.43;1496193;86;21576;-83
2022/08/18 11:23:18;;;;;;;7.17;5.75;;;;;;;32.98;37.63;100018.17;1496069;86;21510;-81
2022/08/18 11:25:45;;;;;;;13.90;5.05;;;;;;;33.15;38.34;100014.26;1488124;86;21404;-84
2022/08/18 11:28:22;;;;;;;9.13;5.65;;;;;;;33.32;37.67;100019.63;1500843;86;22445;-83
2022/08/18 11:30:52;;;;;;;9.88;5.12;;;;;;;33.46;36.71;100022.60;1498339;86;21531;-82
2022/08/18 11:33:20;;;;;;;8.45;5.65;;;;;;;33.31;35.80;100011.16;1498807;86;21528;-83
2022/08/18 11:35:51;;;;;;;6.58;5.42;;;;;;;33.41;36.49;100012.31;1499828;86;21459;-83
2022/08/18 11:38:18;;;;;;;9.43;5.17;;;;;;;33.39;36.63;100007.12;1500790;86;21529;-82
2022/08/18 11:40:50;;;;;;;11.43;6.05;;;;;;;33.53;37.25;100008.47;1497887;86;22203;-87
2022/08/18 11:43:30;;;;;;;8.68;4.95;;;;;;;33.62;37.10;100007.97;1500579;86;21474;-82
2022/08/18 11:46:03;;;;;;;7.20;5.47;;;;;;;33.61;36.07;99999.50;1496308;86;21525;-82
2022/08/18 11:48:39;;;;;;;8.13;5.22;;;;;;;33.51;36.60;99991.48;1498531;86;21587;-86
2022/08/18 11:51:27;;;;;;;8.70;5.45;;;;;;;33.51;35.87;99987.93;1499091;86;21411;-83
2022/08/18 11:54:20;;;;;;;17.00;5.62;;;;;;;33.33;34.78;99987.80;1501296;86;23366;-83
2022/08/18 11:56:46;;;;;;;12.35;4.80;;;;;;;33.29;33.12;99992.83;1494024;86;21529;-85
2022/08/18 11:59:34;;;;;;;9.63;5.00;;;;;;;33.00;33.20;99985.80;1498578;86;21425;-82
2022/08/18 12:02:01;;;;;;;13.13;5.22;;;;;;;33.00;34.02;99988.00;1498247;86;21359;-83
2022/08/18 12:04:40;;;;;;;11.15;5.05;;;;;;;33.14;35.45;99986.58;1499189;86;21323;-82
2022/08/18 12:07:14;;;;;;;10.95;4.70;;;;;;;33.27;34.61;99973.16;1502358;86;21322;-83
2022/08/18 12:10:21;;;;;;;8.58;5.03;;;;;;;33.30;34.77;99978.82;1471013;86;21410;-83
2022/08/18 12:12:51;;;;;;;6.80;4.35;;;;;;;33.45;34.46;99976.27;1501410;86;23009;-83
2022/08/18 12:15:26;;;;;;;15.55;5.08;;;;;;;33.51;32.62;99976.95;1498840;86;21345;-83